sensor_id;sensor_type;location;lat;lon;timestamp;temperature;humidity
12819;DHT22;6474;53.474;9.894;2024-02-16T00:00:19;12.10;96.50
12819;DHT22;6474;53.474;9.894;2024-02-16T00:02:47;12.00;96.50
12819;DHT22;6474;53.474;9.894;2024-02-16T00:05:15;12.00;96.40
12819;DHT22;6474;53.474;9.894;2024-02-16T00:07:45;12.00;96.40
12819;DHT22;6474;53.474;9.894;2024-02-16T00:10:13;12.00;96.40
12819;DHT22;6474;53.474;9.894;2024-02-16T00:12:41;12.00;96.40
12819;DHT22;6474;53.474;9.894;2024-02-16T00:15:09;12.00;96.40
12819;DHT22;6474;53.474;9.894;2024-02-16T00:17:38;12.00;96.40
12819;DHT22;6474;53.474;9.894;2024-02-16T00:20:10;12.00;96.40
12819;DHT22;6474;53.474;9.894;2024-02-16T00:22:40;12.00;96.80
12819;DHT22;6474;53.474;9.894;2024-02-16T00:25:09;12.00;96.40
12819;DHT22;6474;53.474;9.894;2024-02-16T00:27:37;12.00;96.50
12819;DHT22;6474;53.474;9.894;2024-02-16T00:30:07;12.00;96.50
12819;DHT22;6474;53.474;9.894;2024-02-16T00:32:37;12.00;96.50
12819;DHT22;6474;53.474;9.894;2024-02-16T00:35:06;12.00;96.50
12819;DHT22;6474;53.474;9.894;2024-02-16T00:37:37;12.10;96.50
12819;DHT22;6474;53.474;9.894;2024-02-16T00:40:09;12.10;96.50
12819;DHT22;6474;53.474;9.894;2024-02-16T00:42:39;12.10;96.50
12819;DHT22;6474;53.474;9.894;2024-02-16T00:45:08;12.10;96.50
12819;DHT22;6474;53.474;9.894;2024-02-16T00:47:38;12.10;96.80
12819;DHT22;6474;53.474;9.894;2024-02-16T00:50:09;12.10;96.50
12819;DHT22;6474;53.474;9.894;2024-02-16T00:52:38;12.00;96.40
12819;DHT22;6474;53.474;9.894;2024-02-16T00:55:09;12.00;96.40
12819;DHT22;6474;53.474;9.894;2024-02-16T00:57:37;12.00;96.30
12819;DHT22;6474;53.474;9.894;2024-02-16T01:00:07;12.00;96.30
12819;DHT22;6474;53.474;9.894;2024-02-16T01:02:38;11.90;96.30
12819;DHT22;6474;53.474;9.894;2024-02-16T01:05:07;11.90;96.30
12819;DHT22;6474;53.474;9.894;2024-02-16T01:07:37;11.90;96.40
12819;DHT22;6474;53.474;9.894;2024-02-16T01:10:08;11.80;96.20
12819;DHT22;6474;53.474;9.894;2024-02-16T01:12:36;11.80;96.20
12819;DHT22;6474;53.474;9.894;2024-02-16T01:15:05;11.80;96.20
12819;DHT22;6474;53.474;9.894;2024-02-16T01:17:33;11.80;96.30
12819;DHT22;6474;53.474;9.894;2024-02-16T01:20:01;11.70;96.30
12819;DHT22;6474;53.474;9.894;2024-02-16T01:22:31;11.70;96.30
12819;DHT22;6474;53.474;9.894;2024-02-16T01:24:59;11.70;96.30
12819;DHT22;6474;53.474;9.894;2024-02-16T01:27:28;11.60;96.20
12819;DHT22;6474;53.474;9.894;2024-02-16T01:29:56;11.60;96.20
12819;DHT22;6474;53.474;9.894;2024-02-16T01:32:24;11.60;96.20
12819;DHT22;6474;53.474;9.894;2024-02-16T01:34:52;11.60;96.20
12819;DHT22;6474;53.474;9.894;2024-02-16T01:37:20;11.60;96.30
12819;DHT22;6474;53.474;9.894;2024-02-16T01:39:48;11.60;96.30
12819;DHT22;6474;53.474;9.894;2024-02-16T01:42:16;11.60;96.30
12819;DHT22;6474;53.474;9.894;2024-02-16T01:44:45;11.50;96.20
12819;DHT22;6474;53.474;9.894;2024-02-16T01:47:14;11.50;96.20
12819;DHT22;6474;53.474;9.894;2024-02-16T01:49:42;11.50;96.20
12819;DHT22;6474;53.474;9.894;2024-02-16T01:52:10;11.50;96.10
12819;DHT22;6474;53.474;9.894;2024-02-16T01:54:38;11.50;96.10
12819;DHT22;6474;53.474;9.894;2024-02-16T01:57:06;11.50;96.10
12819;DHT22;6474;53.474;9.894;2024-02-16T01:59:35;11.50;96.10
12819;DHT22;6474;53.474;9.894;2024-02-16T02:02:05;11.50;96.10
12819;DHT22;6474;53.474;9.894;2024-02-16T02:04:33;11.50;96.10
12819;DHT22;6474;53.474;9.894;2024-02-16T02:07:11;11.50;96.10
12819;DHT22;6474;53.474;9.894;2024-02-16T02:09:39;11.50;96.10
12819;DHT22;6474;53.474;9.894;2024-02-16T02:12:07;11.40;96.00
12819;DHT22;6474;53.474;9.894;2024-02-16T02:14:36;11.50;96.10
12819;DHT22;6474;53.474;9.894;2024-02-16T02:17:05;11.40;96.00
12819;DHT22;6474;53.474;9.894;2024-02-16T02:19:34;11.50;96.10
12819;DHT22;6474;53.474;9.894;2024-02-16T02:22:02;11.40;96.00
12819;DHT22;6474;53.474;9.894;2024-02-16T02:24:31;11.40;96.00
12819;DHT22;6474;53.474;9.894;2024-02-16T02:26:59;11.40;96.00
12819;DHT22;6474;53.474;9.894;2024-02-16T02:29:27;11.50;96.00
12819;DHT22;6474;53.474;9.894;2024-02-16T02:31:56;11.40;95.90
12819;DHT22;6474;53.474;9.894;2024-02-16T02:34:24;11.40;95.90
12819;DHT22;6474;53.474;9.894;2024-02-16T02:36:52;11.40;96.00
12819;DHT22;6474;53.474;9.894;2024-02-16T02:39:20;11.40;96.00
12819;DHT22;6474;53.474;9.894;2024-02-16T02:41:49;11.50;96.00
12819;DHT22;6474;53.474;9.894;2024-02-16T02:44:17;11.40;95.90
12819;DHT22;6474;53.474;9.894;2024-02-16T02:46:45;11.40;95.90
12819;DHT22;6474;53.474;9.894;2024-02-16T02:49:13;11.40;95.90
12819;DHT22;6474;53.474;9.894;2024-02-16T02:51:41;11.40;95.90
12819;DHT22;6474;53.474;9.894;2024-02-16T02:54:09;11.40;96.30
12819;DHT22;6474;53.474;9.894;2024-02-16T02:56:37;11.40;96.00
12819;DHT22;6474;53.474;9.894;2024-02-16T02:59:06;11.40;96.00
12819;DHT22;6474;53.474;9.894;2024-02-16T03:01:35;11.40;96.00
12819;DHT22;6474;53.474;9.894;2024-02-16T03:04:03;11.40;96.00
12819;DHT22;6474;53.474;9.894;2024-02-16T03:06:32;11.40;96.00
12819;DHT22;6474;53.474;9.894;2024-02-16T03:09:00;11.50;96.00
12819;DHT22;6474;53.474;9.894;2024-02-16T03:11:28;11.50;96.00
12819;DHT22;6474;53.474;9.894;2024-02-16T03:13:55;11.50;96.00
12819;DHT22;6474;53.474;9.894;2024-02-16T03:16:24;11.50;96.00
12819;DHT22;6474;53.474;9.894;2024-02-16T03:18:53;11.50;96.00
12819;DHT22;6474;53.474;9.894;2024-02-16T03:21:21;11.50;96.00
12819;DHT22;6474;53.474;9.894;2024-02-16T03:23:49;11.50;96.00
12819;DHT22;6474;53.474;9.894;2024-02-16T03:26:18;11.50;95.90
12819;DHT22;6474;53.474;9.894;2024-02-16T03:28:47;11.50;95.90
12819;DHT22;6474;53.474;9.894;2024-02-16T03:31:17;11.60;96.00
12819;DHT22;6474;53.474;9.894;2024-02-16T03:33:46;11.60;96.00
12819;DHT22;6474;53.474;9.894;2024-02-16T03:36:15;11.60;96.00
12819;DHT22;6474;53.474;9.894;2024-02-16T03:38:43;11.60;96.00
12819;DHT22;6474;53.474;9.894;2024-02-16T03:41:13;11.60;96.00
12819;DHT22;6474;53.474;9.894;2024-02-16T03:43:42;11.60;96.00
12819;DHT22;6474;53.474;9.894;2024-02-16T03:46:10;11.60;96.00
12819;DHT22;6474;53.474;9.894;2024-02-16T03:48:39;11.60;95.90
12819;DHT22;6474;53.474;9.894;2024-02-16T03:51:08;11.60;95.90
12819;DHT22;6474;53.474;9.894;2024-02-16T03:53:37;11.60;95.90
12819;DHT22;6474;53.474;9.894;2024-02-16T03:56:05;11.60;95.90
12819;DHT22;6474;53.474;9.894;2024-02-16T03:58:35;11.60;95.90
12819;DHT22;6474;53.474;9.894;2024-02-16T04:01:04;11.60;96.00
12819;DHT22;6474;53.474;9.894;2024-02-16T04:03:33;11.50;95.90
12819;DHT22;6474;53.474;9.894;2024-02-16T04:06:02;11.60;96.00
12819;DHT22;6474;53.474;9.894;2024-02-16T04:08:32;11.60;96.00
12819;DHT22;6474;53.474;9.894;2024-02-16T04:11:00;11.50;95.90
12819;DHT22;6474;53.474;9.894;2024-02-16T04:13:29;11.50;95.90
12819;DHT22;6474;53.474;9.894;2024-02-16T04:15:59;11.50;95.90
12819;DHT22;6474;53.474;9.894;2024-02-16T04:18:27;11.50;95.90
12819;DHT22;6474;53.474;9.894;2024-02-16T04:20:55;11.50;95.90
12819;DHT22;6474;53.474;9.894;2024-02-16T04:23:23;11.50;95.90
12819;DHT22;6474;53.474;9.894;2024-02-16T04:25:52;11.50;95.90
12819;DHT22;6474;53.474;9.894;2024-02-16T04:28:20;11.60;96.00
12819;DHT22;6474;53.474;9.894;2024-02-16T04:30:48;11.60;95.90
12819;DHT22;6474;53.474;9.894;2024-02-16T04:33:16;11.50;95.90
12819;DHT22;6474;53.474;9.894;2024-02-16T04:35:44;11.60;95.90
12819;DHT22;6474;53.474;9.894;2024-02-16T04:38:13;11.60;95.90
12819;DHT22;6474;53.474;9.894;2024-02-16T04:40:41;11.60;95.90
12819;DHT22;6474;53.474;9.894;2024-02-16T04:43:10;11.50;95.90
12819;DHT22;6474;53.474;9.894;2024-02-16T04:45:38;11.60;95.90
12819;DHT22;6474;53.474;9.894;2024-02-16T04:48:07;11.50;95.90
12819;DHT22;6474;53.474;9.894;2024-02-16T04:50:35;11.50;95.90
12819;DHT22;6474;53.474;9.894;2024-02-16T04:53:03;11.60;95.90
12819;DHT22;6474;53.474;9.894;2024-02-16T04:55:31;11.60;95.90
12819;DHT22;6474;53.474;9.894;2024-02-16T04:58:00;11.50;95.80
12819;DHT22;6474;53.474;9.894;2024-02-16T05:00:32;11.50;95.80
12819;DHT22;6474;53.474;9.894;2024-02-16T05:03:01;11.50;95.80
12819;DHT22;6474;53.474;9.894;2024-02-16T05:05:29;11.50;95.80
12819;DHT22;6474;53.474;9.894;2024-02-16T05:07:58;11.50;95.80
12819;DHT22;6474;53.474;9.894;2024-02-16T05:10:26;11.50;95.80
12819;DHT22;6474;53.474;9.894;2024-02-16T05:12:54;11.50;95.80
12819;DHT22;6474;53.474;9.894;2024-02-16T05:15:24;11.50;95.90
12819;DHT22;6474;53.474;9.894;2024-02-16T05:17:54;11.50;95.90
12819;DHT22;6474;53.474;9.894;2024-02-16T05:20:22;11.50;95.90
12819;DHT22;6474;53.474;9.894;2024-02-16T05:22:50;11.40;95.80
12819;DHT22;6474;53.474;9.894;2024-02-16T05:25:18;11.40;95.80
12819;DHT22;6474;53.474;9.894;2024-02-16T05:27:46;11.40;95.80
12819;DHT22;6474;53.474;9.894;2024-02-16T05:30:14;11.40;95.80
12819;DHT22;6474;53.474;9.894;2024-02-16T05:32:43;11.40;95.70
12819;DHT22;6474;53.474;9.894;2024-02-16T05:35:13;11.40;95.70
12819;DHT22;6474;53.474;9.894;2024-02-16T05:37:44;11.40;95.70
12819;DHT22;6474;53.474;9.894;2024-02-16T05:40:14;11.30;95.70
12819;DHT22;6474;53.474;9.894;2024-02-16T05:42:51;11.30;95.70
12819;DHT22;6474;53.474;9.894;2024-02-16T05:45:19;11.30;95.70
12819;DHT22;6474;53.474;9.894;2024-02-16T05:47:49;11.30;95.70
12819;DHT22;6474;53.474;9.894;2024-02-16T05:50:20;11.30;95.80
12819;DHT22;6474;53.474;9.894;2024-02-16T05:52:49;11.20;95.70
12819;DHT22;6474;53.474;9.894;2024-02-16T05:55:18;11.20;95.70
12819;DHT22;6474;53.474;9.894;2024-02-16T05:57:46;11.20;95.70
12819;DHT22;6474;53.474;9.894;2024-02-16T06:00:15;11.20;95.70
12819;DHT22;6474;53.474;9.894;2024-02-16T06:02:43;11.20;95.80
12819;DHT22;6474;53.474;9.894;2024-02-16T06:05:11;11.10;95.80
12819;DHT22;6474;53.474;9.894;2024-02-16T06:07:40;11.10;95.80
12819;DHT22;6474;53.474;9.894;2024-02-16T06:10:09;11.10;95.80
12819;DHT22;6474;53.474;9.894;2024-02-16T06:12:38;11.10;95.80
12819;DHT22;6474;53.474;9.894;2024-02-16T06:15:06;11.10;95.70
12819;DHT22;6474;53.474;9.894;2024-02-16T06:17:35;11.10;95.70
12819;DHT22;6474;53.474;9.894;2024-02-16T06:20:05;11.10;95.70
12819;DHT22;6474;53.474;9.894;2024-02-16T06:22:36;11.10;95.70
12819;DHT22;6474;53.474;9.894;2024-02-16T06:25:06;11.10;95.70
12819;DHT22;6474;53.474;9.894;2024-02-16T06:27:34;11.00;95.60
12819;DHT22;6474;53.474;9.894;2024-02-16T06:30:02;11.00;95.60
12819;DHT22;6474;53.474;9.894;2024-02-16T06:32:31;11.00;95.70
12819;DHT22;6474;53.474;9.894;2024-02-16T06:34:59;11.00;95.70
12819;DHT22;6474;53.474;9.894;2024-02-16T06:37:27;11.00;95.60
12819;DHT22;6474;53.474;9.894;2024-02-16T06:39:55;11.00;95.60
12819;DHT22;6474;53.474;9.894;2024-02-16T06:42:24;11.00;95.60
12819;DHT22;6474;53.474;9.894;2024-02-16T06:44:52;11.00;95.60
12819;DHT22;6474;53.474;9.894;2024-02-16T06:47:20;11.00;95.70
12819;DHT22;6474;53.474;9.894;2024-02-16T06:49:50;11.00;95.70
12819;DHT22;6474;53.474;9.894;2024-02-16T06:52:18;11.00;95.70
12819;DHT22;6474;53.474;9.894;2024-02-16T06:54:46;11.00;95.70
12819;DHT22;6474;53.474;9.894;2024-02-16T06:57:15;11.00;95.60
12819;DHT22;6474;53.474;9.894;2024-02-16T06:59:45;11.00;95.60
12819;DHT22;6474;53.474;9.894;2024-02-16T07:02:13;10.90;95.50
12819;DHT22;6474;53.474;9.894;2024-02-16T07:04:42;10.90;95.50
12819;DHT22;6474;53.474;9.894;2024-02-16T07:07:10;10.90;95.50
12819;DHT22;6474;53.474;9.894;2024-02-16T07:09:38;10.90;95.50
12819;DHT22;6474;53.474;9.894;2024-02-16T07:12:07;10.80;95.50
12819;DHT22;6474;53.474;9.894;2024-02-16T07:14:35;10.80;95.60
12819;DHT22;6474;53.474;9.894;2024-02-16T07:17:04;10.80;95.70
12819;DHT22;6474;53.474;9.894;2024-02-16T07:19:36;10.80;95.70
12819;DHT22;6474;53.474;9.894;2024-02-16T07:22:05;10.90;95.70
12819;DHT22;6474;53.474;9.894;2024-02-16T07:24:34;10.90;95.70
12819;DHT22;6474;53.474;9.894;2024-02-16T07:27:02;10.90;95.70
12819;DHT22;6474;53.474;9.894;2024-02-16T07:29:30;10.90;95.70
12819;DHT22;6474;53.474;9.894;2024-02-16T07:31:58;10.90;95.70
12819;DHT22;6474;53.474;9.894;2024-02-16T07:34:27;10.90;95.70
12819;DHT22;6474;53.474;9.894;2024-02-16T07:36:55;11.00;95.80
12819;DHT22;6474;53.474;9.894;2024-02-16T07:39:23;11.00;95.90
12819;DHT22;6474;53.474;9.894;2024-02-16T07:41:52;11.10;95.90
12819;DHT22;6474;53.474;9.894;2024-02-16T07:44:20;11.10;95.90
12819;DHT22;6474;53.474;9.894;2024-02-16T07:46:48;11.20;95.90
12819;DHT22;6474;53.474;9.894;2024-02-16T07:49:17;11.20;95.80
12819;DHT22;6474;53.474;9.894;2024-02-16T07:51:47;11.20;95.80
12819;DHT22;6474;53.474;9.894;2024-02-16T07:54:15;11.20;95.70
12819;DHT22;6474;53.474;9.894;2024-02-16T07:56:43;11.20;95.70
12819;DHT22;6474;53.474;9.894;2024-02-16T07:59:11;11.20;95.70
12819;DHT22;6474;53.474;9.894;2024-02-16T08:01:39;11.30;95.80
12819;DHT22;6474;53.474;9.894;2024-02-16T08:04:07;11.30;95.80
12819;DHT22;6474;53.474;9.894;2024-02-16T08:06:35;11.30;95.80
12819;DHT22;6474;53.474;9.894;2024-02-16T08:09:05;11.30;95.80
12819;DHT22;6474;53.474;9.894;2024-02-16T08:11:33;11.40;95.90
12819;DHT22;6474;53.474;9.894;2024-02-16T08:14:01;11.50;95.90
12819;DHT22;6474;53.474;9.894;2024-02-16T08:16:30;11.50;95.90
12819;DHT22;6474;53.474;9.894;2024-02-16T08:18:57;11.60;96.00
12819;DHT22;6474;53.474;9.894;2024-02-16T08:21:26;11.60;95.90
12819;DHT22;6474;53.474;9.894;2024-02-16T08:23:54;11.60;95.90
12819;DHT22;6474;53.474;9.894;2024-02-16T08:26:23;11.60;95.80
12819;DHT22;6474;53.474;9.894;2024-02-16T08:28:51;11.60;95.80
12819;DHT22;6474;53.474;9.894;2024-02-16T08:31:19;11.60;96.00
12819;DHT22;6474;53.474;9.894;2024-02-16T08:33:46;11.60;95.80
12819;DHT22;6474;53.474;9.894;2024-02-16T08:36:15;11.60;95.80
12819;DHT22;6474;53.474;9.894;2024-02-16T08:38:43;11.60;95.80
12819;DHT22;6474;53.474;9.894;2024-02-16T08:41:11;11.60;95.80
12819;DHT22;6474;53.474;9.894;2024-02-16T08:43:40;11.60;95.80
12819;DHT22;6474;53.474;9.894;2024-02-16T08:46:08;11.60;95.90
12819;DHT22;6474;53.474;9.894;2024-02-16T08:48:36;11.60;95.90
12819;DHT22;6474;53.474;9.894;2024-02-16T08:51:05;11.60;95.90
12819;DHT22;6474;53.474;9.894;2024-02-16T08:53:33;11.60;96.00
12819;DHT22;6474;53.474;9.894;2024-02-16T08:56:01;11.60;96.00
12819;DHT22;6474;53.474;9.894;2024-02-16T08:58:29;11.60;96.00
12819;DHT22;6474;53.474;9.894;2024-02-16T09:00:58;11.60;96.00
12819;DHT22;6474;53.474;9.894;2024-02-16T09:03:26;11.60;96.00
12819;DHT22;6474;53.474;9.894;2024-02-16T09:05:54;11.70;96.10
12819;DHT22;6474;53.474;9.894;2024-02-16T09:08:22;11.70;96.10
12819;DHT22;6474;53.474;9.894;2024-02-16T09:10:51;11.70;96.10
12819;DHT22;6474;53.474;9.894;2024-02-16T09:13:19;11.80;96.10
12819;DHT22;6474;53.474;9.894;2024-02-16T09:15:59;11.80;96.10
12819;DHT22;6474;53.474;9.894;2024-02-16T09:18:27;11.90;96.10
12819;DHT22;6474;53.474;9.894;2024-02-16T09:20:55;11.90;96.10
12819;DHT22;6474;53.474;9.894;2024-02-16T09:23:24;11.90;96.10
12819;DHT22;6474;53.474;9.894;2024-02-16T09:25:52;12.00;96.10
12819;DHT22;6474;53.474;9.894;2024-02-16T09:28:21;12.00;96.10
12819;DHT22;6474;53.474;9.894;2024-02-16T09:30:56;12.00;96.10
12819;DHT22;6474;53.474;9.894;2024-02-16T09:33:25;12.00;96.10
12819;DHT22;6474;53.474;9.894;2024-02-16T09:35:55;12.00;96.10
12819;DHT22;6474;53.474;9.894;2024-02-16T09:38:23;12.00;96.10
12819;DHT22;6474;53.474;9.894;2024-02-16T09:40:50;12.10;96.10
12819;DHT22;6474;53.474;9.894;2024-02-16T09:43:26;12.10;96.20
12819;DHT22;6474;53.474;9.894;2024-02-16T09:45:55;12.10;96.20
12819;DHT22;6474;53.474;9.894;2024-02-16T09:48:24;12.20;96.30
12819;DHT22;6474;53.474;9.894;2024-02-16T09:50:55;12.20;96.30
12819;DHT22;6474;53.474;9.894;2024-02-16T09:53:27;12.30;96.30
12819;DHT22;6474;53.474;9.894;2024-02-16T09:55:55;12.30;96.40
12819;DHT22;6474;53.474;9.894;2024-02-16T09:58:23;12.40;96.40
12819;DHT22;6474;53.474;9.894;2024-02-16T10:00:52;12.40;96.40
12819;DHT22;6474;53.474;9.894;2024-02-16T10:03:22;12.50;96.50
12819;DHT22;6474;53.474;9.894;2024-02-16T10:05:51;12.60;96.60
12819;DHT22;6474;53.474;9.894;2024-02-16T10:08:22;12.70;96.60
12819;DHT22;6474;53.474;9.894;2024-02-16T10:11:00;12.80;96.60
12819;DHT22;6474;53.474;9.894;2024-02-16T10:13:28;12.90;96.70
12819;DHT22;6474;53.474;9.894;2024-02-16T10:16:04;13.10;96.70
12819;DHT22;6474;53.474;9.894;2024-02-16T10:18:32;13.20;96.60
12819;DHT22;6474;53.474;9.894;2024-02-16T10:21:00;13.30;96.60
12819;DHT22;6474;53.474;9.894;2024-02-16T10:23:30;13.40;96.50
12819;DHT22;6474;53.474;9.894;2024-02-16T10:26:02;13.50;96.50
12819;DHT22;6474;53.474;9.894;2024-02-16T10:28:29;13.60;96.50
12819;DHT22;6474;53.474;9.894;2024-02-16T10:30:58;13.70;96.50
12819;DHT22;6474;53.474;9.894;2024-02-16T10:33:29;13.80;96.50
12819;DHT22;6474;53.474;9.894;2024-02-16T10:35:57;13.80;96.30
12819;DHT22;6474;53.474;9.894;2024-02-16T10:38:27;13.90;96.20
12819;DHT22;6474;53.474;9.894;2024-02-16T10:40:56;13.90;96.10
12819;DHT22;6474;53.474;9.894;2024-02-16T10:43:27;13.90;95.90
12819;DHT22;6474;53.474;9.894;2024-02-16T10:45:57;13.90;96.10
12819;DHT22;6474;53.474;9.894;2024-02-16T10:48:25;14.00;96.20
12819;DHT22;6474;53.474;9.894;2024-02-16T10:50:54;14.00;96.20
12819;DHT22;6474;53.474;9.894;2024-02-16T10:53:26;14.00;96.20
12819;DHT22;6474;53.474;9.894;2024-02-16T10:55:58;14.00;96.10
12819;DHT22;6474;53.474;9.894;2024-02-16T10:58:28;14.10;96.10
12819;DHT22;6474;53.474;9.894;2024-02-16T11:00:56;14.10;96.10
12819;DHT22;6474;53.474;9.894;2024-02-16T11:03:26;14.10;96.10
12819;DHT22;6474;53.474;9.894;2024-02-16T11:05:55;14.10;96.10
12819;DHT22;6474;53.474;9.894;2024-02-16T11:08:25;14.20;96.10
12819;DHT22;6474;53.474;9.894;2024-02-16T11:10:57;14.20;96.10
12819;DHT22;6474;53.474;9.894;2024-02-16T11:13:27;14.20;96.10
12819;DHT22;6474;53.474;9.894;2024-02-16T11:15:58;14.20;96.10
12819;DHT22;6474;53.474;9.894;2024-02-16T11:18:27;14.30;96.20
12819;DHT22;6474;53.474;9.894;2024-02-16T11:21:00;14.30;96.20
12819;DHT22;6474;53.474;9.894;2024-02-16T11:23:29;14.30;96.20
12819;DHT22;6474;53.474;9.894;2024-02-16T11:26:03;14.30;96.20
12819;DHT22;6474;53.474;9.894;2024-02-16T11:28:32;14.30;96.20
12819;DHT22;6474;53.474;9.894;2024-02-16T11:31:04;14.40;96.20
12819;DHT22;6474;53.474;9.894;2024-02-16T11:33:33;14.40;96.20
12819;DHT22;6474;53.474;9.894;2024-02-16T11:36:02;14.40;96.20
12819;DHT22;6474;53.474;9.894;2024-02-16T11:38:34;14.40;96.20
12819;DHT22;6474;53.474;9.894;2024-02-16T11:41:05;14.40;96.20
12819;DHT22;6474;53.474;9.894;2024-02-16T11:43:34;14.40;96.20
12819;DHT22;6474;53.474;9.894;2024-02-16T11:46:14;14.40;96.20
12819;DHT22;6474;53.474;9.894;2024-02-16T11:48:43;14.40;96.20
12819;DHT22;6474;53.474;9.894;2024-02-16T11:51:15;14.40;96.20
12819;DHT22;6474;53.474;9.894;2024-02-16T11:53:44;14.50;96.30
12819;DHT22;6474;53.474;9.894;2024-02-16T11:56:22;14.50;96.30
12819;DHT22;6474;53.474;9.894;2024-02-16T11:59:00;14.60;96.30
12819;DHT22;6474;53.474;9.894;2024-02-16T12:01:29;14.70;96.40
12819;DHT22;6474;53.474;9.894;2024-02-16T12:03:59;14.70;96.30
12819;DHT22;6474;53.474;9.894;2024-02-16T12:06:29;14.70;96.30
12819;DHT22;6474;53.474;9.894;2024-02-16T12:08:58;14.70;96.30
12819;DHT22;6474;53.474;9.894;2024-02-16T12:11:27;14.80;96.30
12819;DHT22;6474;53.474;9.894;2024-02-16T12:13:55;14.80;96.30
12819;DHT22;6474;53.474;9.894;2024-02-16T12:16:25;14.80;96.30
12819;DHT22;6474;53.474;9.894;2024-02-16T12:19:02;14.80;96.30
12819;DHT22;6474;53.474;9.894;2024-02-16T12:21:35;14.80;96.20
12819;DHT22;6474;53.474;9.894;2024-02-16T12:24:04;14.80;96.20
12819;DHT22;6474;53.474;9.894;2024-02-16T12:26:34;14.80;96.20
12819;DHT22;6474;53.474;9.894;2024-02-16T12:29:02;14.80;96.20
12819;DHT22;6474;53.474;9.894;2024-02-16T12:31:30;14.70;96.20
12819;DHT22;6474;53.474;9.894;2024-02-16T12:34:04;14.70;96.20
12819;DHT22;6474;53.474;9.894;2024-02-16T12:36:35;14.70;96.20
12819;DHT22;6474;53.474;9.894;2024-02-16T12:39:03;14.80;96.20
12819;DHT22;6474;53.474;9.894;2024-02-16T12:41:34;14.80;96.20
12819;DHT22;6474;53.474;9.894;2024-02-16T12:44:05;14.80;96.20
12819;DHT22;6474;53.474;9.894;2024-02-16T12:46:38;14.80;96.20
12819;DHT22;6474;53.474;9.894;2024-02-16T12:49:07;14.70;96.20
12819;DHT22;6474;53.474;9.894;2024-02-16T12:51:35;14.80;96.30
12819;DHT22;6474;53.474;9.894;2024-02-16T12:54:03;14.80;96.20
12819;DHT22;6474;53.474;9.894;2024-02-16T12:56:34;14.70;96.20
12819;DHT22;6474;53.474;9.894;2024-02-16T12:59:01;14.70;96.20
12819;DHT22;6474;53.474;9.894;2024-02-16T13:01:30;14.60;96.10
12819;DHT22;6474;53.474;9.894;2024-02-16T13:03:58;14.60;96.10
12819;DHT22;6474;53.474;9.894;2024-02-16T13:06:27;14.60;96.10
12819;DHT22;6474;53.474;9.894;2024-02-16T13:08:56;14.60;96.20
12819;DHT22;6474;53.474;9.894;2024-02-16T13:11:24;14.50;96.20
12819;DHT22;6474;53.474;9.894;2024-02-16T13:13:54;14.50;96.20
12819;DHT22;6474;53.474;9.894;2024-02-16T13:16:22;14.50;96.20
12819;DHT22;6474;53.474;9.894;2024-02-16T13:18:50;14.40;96.20
12819;DHT22;6474;53.474;9.894;2024-02-16T13:21:18;14.50;96.30
12819;DHT22;6474;53.474;9.894;2024-02-16T13:23:47;14.40;96.20
12819;DHT22;6474;53.474;9.894;2024-02-16T13:26:15;14.40;96.20
12819;DHT22;6474;53.474;9.894;2024-02-16T13:28:43;14.40;96.20
12819;DHT22;6474;53.474;9.894;2024-02-16T13:31:13;14.40;96.20
12819;DHT22;6474;53.474;9.894;2024-02-16T13:33:42;14.40;96.10
12819;DHT22;6474;53.474;9.894;2024-02-16T13:36:10;14.40;96.10
12819;DHT22;6474;53.474;9.894;2024-02-16T13:38:38;14.40;96.10
12819;DHT22;6474;53.474;9.894;2024-02-16T13:41:06;14.40;96.10
12819;DHT22;6474;53.474;9.894;2024-02-16T13:43:36;14.40;96.00
12819;DHT22;6474;53.474;9.894;2024-02-16T13:46:04;14.40;96.00
12819;DHT22;6474;53.474;9.894;2024-02-16T13:48:33;14.40;96.00
12819;DHT22;6474;53.474;9.894;2024-02-16T13:51:04;14.40;96.00
12819;DHT22;6474;53.474;9.894;2024-02-16T13:53:34;14.40;96.00
12819;DHT22;6474;53.474;9.894;2024-02-16T13:56:02;14.40;96.00
12819;DHT22;6474;53.474;9.894;2024-02-16T13:58:32;14.40;96.00
12819;DHT22;6474;53.474;9.894;2024-02-16T14:01:04;14.40;96.00
12819;DHT22;6474;53.474;9.894;2024-02-16T14:03:34;14.40;96.10
12819;DHT22;6474;53.474;9.894;2024-02-16T14:06:05;14.40;96.10
12819;DHT22;6474;53.474;9.894;2024-02-16T14:08:33;14.50;96.10
12819;DHT22;6474;53.474;9.894;2024-02-16T14:11:04;14.50;96.10
12819;DHT22;6474;53.474;9.894;2024-02-16T14:13:32;14.50;96.10
12819;DHT22;6474;53.474;9.894;2024-02-16T14:16:00;14.50;96.10
12819;DHT22;6474;53.474;9.894;2024-02-16T14:18:28;14.50;96.10
12819;DHT22;6474;53.474;9.894;2024-02-16T14:21:03;14.50;96.10
12819;DHT22;6474;53.474;9.894;2024-02-16T14:23:31;14.50;96.10
12819;DHT22;6474;53.474;9.894;2024-02-16T14:26:00;14.50;96.00
12819;DHT22;6474;53.474;9.894;2024-02-16T14:28:27;14.50;96.00
12819;DHT22;6474;53.474;9.894;2024-02-16T14:30:55;14.50;96.00
12819;DHT22;6474;53.474;9.894;2024-02-16T14:33:24;14.50;96.00
12819;DHT22;6474;53.474;9.894;2024-02-16T14:36:00;14.40;95.90
12819;DHT22;6474;53.474;9.894;2024-02-16T14:38:30;14.40;95.90
12819;DHT22;6474;53.474;9.894;2024-02-16T14:40:57;14.40;95.90
12819;DHT22;6474;53.474;9.894;2024-02-16T14:43:30;14.30;95.90
12819;DHT22;6474;53.474;9.894;2024-02-16T14:45:59;14.30;96.00
12819;DHT22;6474;53.474;9.894;2024-02-16T14:48:27;14.30;96.00
12819;DHT22;6474;53.474;9.894;2024-02-16T14:50:58;14.20;95.90
12819;DHT22;6474;53.474;9.894;2024-02-16T14:53:26;14.20;96.20
12819;DHT22;6474;53.474;9.894;2024-02-16T14:55:58;14.10;95.90
12819;DHT22;6474;53.474;9.894;2024-02-16T14:58:39;14.10;95.90
12819;DHT22;6474;53.474;9.894;2024-02-16T15:01:07;14.10;95.90
12819;DHT22;6474;53.474;9.894;2024-02-16T15:03:36;14.00;95.90
12819;DHT22;6474;53.474;9.894;2024-02-16T15:06:04;14.00;95.90
12819;DHT22;6474;53.474;9.894;2024-02-16T15:08:33;14.00;95.90
12819;DHT22;6474;53.474;9.894;2024-02-16T15:11:03;13.90;95.90
12819;DHT22;6474;53.474;9.894;2024-02-16T15:13:31;13.90;96.00
12819;DHT22;6474;53.474;9.894;2024-02-16T15:15:59;13.80;95.90
12819;DHT22;6474;53.474;9.894;2024-02-16T15:18:27;13.80;95.90
12819;DHT22;6474;53.474;9.894;2024-02-16T15:20:55;13.80;95.90
12819;DHT22;6474;53.474;9.894;2024-02-16T15:23:26;13.70;95.90
12819;DHT22;6474;53.474;9.894;2024-02-16T15:25:54;13.70;95.90
12819;DHT22;6474;53.474;9.894;2024-02-16T15:28:23;13.60;95.80
12819;DHT22;6474;53.474;9.894;2024-02-16T15:30:52;13.60;95.90
12819;DHT22;6474;53.474;9.894;2024-02-16T15:33:20;13.60;95.90
12819;DHT22;6474;53.474;9.894;2024-02-16T15:35:50;13.60;95.90
12819;DHT22;6474;53.474;9.894;2024-02-16T15:38:18;13.50;95.90
12819;DHT22;6474;53.474;9.894;2024-02-16T15:40:46;13.50;95.90
12819;DHT22;6474;53.474;9.894;2024-02-16T15:43:14;13.50;96.00
12819;DHT22;6474;53.474;9.894;2024-02-16T15:45:44;13.50;96.00
12819;DHT22;6474;53.474;9.894;2024-02-16T15:48:13;13.50;96.00
12819;DHT22;6474;53.474;9.894;2024-02-16T15:50:43;13.50;96.00
12819;DHT22;6474;53.474;9.894;2024-02-16T15:53:12;13.40;95.90
12819;DHT22;6474;53.474;9.894;2024-02-16T15:55:41;13.40;95.90